ホワイトホース の空港の天気 - METARとTAF

ホワイトホース国際空港 ( CYXY / YXY ) - カナダ ユーコン準州ホワイトホース
飛行場実況気象(Metar)
観測時間07/22 11:00 PDT (07/22 18:00 UTC)
風向・風速不定 1m/s
視程10km以上
天気現象
少しの雲 雲底高度 1220m
全天の4割程度の雲 雲底高度 7320m
気温19℃
湿度49%
気圧1029.3hPa
METARCYXY 221800Z VRB02KT 40SM FEW040 SCT240 19/08 A3036 RMK CF1CI4 CF TR SLP293 DENSITY ALT 2800FT
過去の天気等 Google飛行場航空写真 Wunderground天気予報

過去48時間のMETAR

飛行場予報(TAF)
発表時間: 7/22 10:38 PDT (7/22 17:38 UTC)
予報対象時間: 22日11時 PDT ~ 23日11時 PDT
風向・風速不定 2m/s
視程10km以上
全天の4割程度の雲 雲底高度 7320m
22日11時 PDT ~ 22日13時 PDT に徐々に
風向・風速南東 5m/s
22日16時 PDT から
風向・風速南東 5m/s
視程10km以上
全天の4割程度の雲 雲底高度 2440m
22日16時 PDT ~ 22日21時 PDT に一時的に
全天の8割程度の雲 雲底高度 2440m
23日0時 PDT ~ 23日2時 PDT に徐々に
風向・風速南 3m/s
TAF CYXY 221738Z 2218/2318 VRB03KT P6SM SCT240
BECMG 2218/2220 14010KT
FM222300 14010KT P6SM SCT080
TEMPO 2223/2304 BKN080
BECMG 2307/2309 17005KT RMK NXT FCST BY 230000Z